Time;durP1;ratioP1;P1;durP2;ratioP2;P2;SDS_P1;SDS_P2;PMS_P1;PMS_P2;Temp;Humidity;BMP_temperature;BMP_pressure;BME280_temperature;BME280_humidity;BME280_pressure;Samples;Min_cycle;Max_cycle;Signal;HPM_P1;HPM_P2
2023/12/20 00:00:07;;;;;;;7.57;7.20;;;;;;;;;;6000445;29;20050;-93
2023/12/20 00:03:09;;;;;;;6.80;6.40;;;;;;;;;;5992345;29;20140;-92
2023/12/20 00:06:14;;;;;;;6.85;6.45;;;;;;;;;;5986631;29;20179;-93
2023/12/20 00:09:16;;;;;;;5.88;5.60;;;;;;;;;;5989836;29;20043;-93
2023/12/20 00:12:20;;;;;;;7.22;6.82;;;;;;;;;;6003284;29;20049;-95
2023/12/20 00:15:22;;;;;;;6.60;6.25;;;;;;;;;;5991819;29;20465;-94
2023/12/20 00:18:24;;;;;;;6.43;5.95;;;;;;;;;;5991208;29;20050;-93
2023/12/20 00:21:26;;;;;;;7.85;7.45;;;;;;;;;;6000307;29;20050;-91
2023/12/20 00:24:28;;;;;;;5.40;5.20;;;;;;;;;;5997138;29;20060;-94
2023/12/20 00:27:29;;;;;;;9.82;7.70;;;;;;;;;;5993710;29;20116;-91
2023/12/20 00:30:31;;;;;;;5.72;5.53;;;;;;;;;;5998477;29;20050;-94
2023/12/20 00:33:33;;;;;;;5.63;5.43;;;;;;;;;;6001716;29;20045;-94
2023/12/20 00:36:35;;;;;;;5.78;5.55;;;;;;;;;;5997552;29;20398;-94
2023/12/20 00:39:37;;;;;;;4.70;4.60;;;;;;;;;;6001721;29;20066;-94
2023/12/20 00:42:39;;;;;;;5.70;5.50;;;;;;;;;;5998645;29;20582;-93
2023/12/20 00:45:43;;;;;;;6.32;6.13;;;;;;;;;;5992289;29;20053;-94
2023/12/20 00:48:45;;;;;;;7.07;6.68;;;;;;;;;;5987319;29;20070;-93
2023/12/20 00:51:50;;;;;;;7.22;6.72;;;;;;;;;;5990397;29;20074;-93
2023/12/20 00:54:52;;;;;;;6.85;6.55;;;;;;;;;;5983738;29;20046;-91
2023/12/20 00:57:53;;;;;;;5.53;5.32;;;;;;;;;;5994535;29;20070;-92
2023/12/20 01:00:55;;;;;;;5.22;5.03;;;;;;;;;;5995733;29;20050;-94
2023/12/20 01:03:57;;;;;;;6.18;5.88;;;;;;;;;;5992906;29;20057;-92
2023/12/20 01:06:59;;;;;;;7.10;6.15;;;;;;;;;;6002194;29;20046;-91
2023/12/20 01:10:01;;;;;;;5.72;5.53;;;;;;;;;;5995119;29;20137;-92
2023/12/20 01:13:03;;;;;;;4.70;4.60;;;;;;;;;;5996030;29;20043;-92
2023/12/20 01:16:05;;;;;;;4.95;4.80;;;;;;;;;;5991157;29;20042;-92
2023/12/20 01:19:07;;;;;;;6.35;5.85;;;;;;;;;;5997668;29;20129;-92
2023/12/20 01:22:09;;;;;;;5.05;4.85;;;;;;;;;;5995568;29;20112;-92
2023/12/20 01:25:10;;;;;;;5.93;5.72;;;;;;;;;;5998484;29;20187;-93
2023/12/20 01:28:12;;;;;;;5.65;5.45;;;;;;;;;;5990214;29;20065;-94
2023/12/20 01:31:14;;;;;;;6.30;5.28;;;;;;;;;;5995670;29;20050;-94
2023/12/20 01:34:16;;;;;;;5.55;5.15;;;;;;;;;;5999739;29;20616;-95
2023/12/20 01:37:18;;;;;;;5.82;5.63;;;;;;;;;;6001575;29;20042;-94
2023/12/20 01:40:20;;;;;;;5.43;5.22;;;;;;;;;;6002174;29;20053;-93
2023/12/20 01:43:22;;;;;;;5.20;5.00;;;;;;;;;;6004934;29;20030;-92
2023/12/20 01:46:26;;;;;;;6.30;5.90;;;;;;;;;;5997300;29;20042;-91
2023/12/20 01:49:28;;;;;;;4.85;4.55;;;;;;;;;;6000740;29;20064;-93
2023/12/20 01:52:30;;;;;;;5.20;5.00;;;;;;;;;;6003528;29;20105;-92
2023/12/20 01:55:34;;;;;;;6.07;5.78;;;;;;;;;;6004959;29;20337;-93
2023/12/20 01:58:48;;;;;;;5.43;5.22;;;;;;;;;;6002216;29;20057;-92
2023/12/20 02:01:50;;;;;;;5.80;5.47;;;;;;;;;;5991062;29;20113;-90
2023/12/20 02:04:52;;;;;;;6.82;6.53;;;;;;;;;;6004969;29;20129;-91
2023/12/20 02:07:54;;;;;;;4.95;4.75;;;;;;;;;;6000261;29;20085;-93
2023/12/20 02:10:56;;;;;;;6.07;5.78;;;;;;;;;;5988203;29;20081;-90
2023/12/20 02:13:58;;;;;;;6.07;5.53;;;;;;;;;;5989385;29;20046;-92
2023/12/20 02:17:00;;;;;;;5.53;5.28;;;;;;;;;;6007369;29;20046;-92
2023/12/20 02:20:02;;;;;;;5.90;5.70;;;;;;;;;;5985391;29;20430;-92
2023/12/20 02:23:04;;;;;;;5.15;4.95;;;;;;;;;;5994055;29;20046;-90
2023/12/20 02:26:06;;;;;;;5.18;4.97;;;;;;;;;;5996816;29;20062;-92
2023/12/20 02:29:08;;;;;;;4.97;4.78;;;;;;;;;;5989232;29;20401;-93
2023/12/20 02:32:09;;;;;;;5.55;5.35;;;;;;;;;;6001709;29;20061;-91
2023/12/20 02:35:11;;;;;;;5.53;5.22;;;;;;;;;;5998795;29;20046;-90
2023/12/20 02:38:13;;;;;;;4.95;4.85;;;;;;;;;;5993185;29;20167;-91
2023/12/20 02:41:16;;;;;;;6.05;5.85;;;;;;;;;;5993554;29;20140;-90
2023/12/20 02:44:18;;;;;;;4.50;4.40;;;;;;;;;;5999219;29;20052;-92
2023/12/20 02:47:20;;;;;;;5.35;5.15;;;;;;;;;;5989422;29;20418;-91
2023/12/20 02:50:21;;;;;;;4.72;4.63;;;;;;;;;;6003162;29;20045;-91
2023/12/20 02:53:23;;;;;;;5.65;5.45;;;;;;;;;;5996787;29;20073;-90
2023/12/20 02:56:25;;;;;;;5.28;5.07;;;;;;;;;;6004312;29;20050;-91
2023/12/20 02:59:26;;;;;;;4.88;4.63;;;;;;;;;;6003632;29;20086;-91
2023/12/20 03:02:28;;;;;;;5.90;5.60;;;;;;;;;;5996629;29;20496;-91
2023/12/20 03:05:29;;;;;;;6.22;6.03;;;;;;;;;;6013347;29;20050;-91
2023/12/20 03:08:32;;;;;;;4.70;4.53;;;;;;;;;;5996956;29;20201;-91
2023/12/20 03:11:33;;;;;;;5.05;4.85;;;;;;;;;;5988829;29;20050;-92
2023/12/20 03:14:35;;;;;;;5.55;5.00;;;;;;;;;;5999961;29;20108;-91
2023/12/20 03:17:37;;;;;;;5.35;5.15;;;;;;;;;;5999735;29;20046;-92
2023/12/20 03:20:38;;;;;;;5.47;5.28;;;;;;;;;;5998341;29;20038;-92
2023/12/20 03:23:42;;;;;;;6.45;5.93;;;;;;;;;;5995728;29;20172;-92
2023/12/20 03:26:43;;;;;;;5.53;5.22;;;;;;;;;;6000342;29;20398;-92
2023/12/20 03:29:45;;;;;;;5.30;5.10;;;;;;;;;;5997140;29;20070;-92
2023/12/20 03:32:47;;;;;;;5.75;5.55;;;;;;;;;;5993936;29;20046;-93
2023/12/20 03:35:49;;;;;;;5.35;5.05;;;;;;;;;;5997294;29;20516;-92
2023/12/20 03:38:50;;;;;;;8.73;5.10;;;;;;;;;;5987424;29;20073;-92
2023/12/20 03:41:52;;;;;;;4.85;4.45;;;;;;;;;;6001396;29;20510;-92
2023/12/20 03:44:54;;;;;;;5.63;5.22;;;;;;;;;;5998698;29;20401;-92
2023/12/20 03:47:56;;;;;;;6.63;6.32;;;;;;;;;;6000521;29;20114;-92
2023/12/20 03:50:58;;;;;;;5.25;5.05;;;;;;;;;;6006873;29;20050;-92
2023/12/20 03:54:00;;;;;;;4.88;4.72;;;;;;;;;;5994138;29;20045;-91
2023/12/20 03:57:01;;;;;;;5.57;5.38;;;;;;;;;;5997486;29;20045;-93
2023/12/20 04:00:03;;;;;;;6.47;6.22;;;;;;;;;;5994710;29;20409;-92
2023/12/20 04:03:18;;;;;;;5.97;5.78;;;;;;;;;;6004110;29;20070;-92
2023/12/20 04:06:20;;;;;;;5.30;5.10;;;;;;;;;;5991119;29;20041;-92
2023/12/20 04:09:22;;;;;;;5.68;5.47;;;;;;;;;;5997518;29;20489;-92
2023/12/20 04:12:24;;;;;;;4.95;4.75;;;;;;;;;;6002755;29;20045;-90
2023/12/20 04:15:26;;;;;;;4.60;4.50;;;;;;;;;;5995271;29;20509;-96
2023/12/20 04:18:28;;;;;;;4.97;4.68;;;;;;;;;;5989907;29;20046;-92
2023/12/20 04:21:30;;;;;;;5.20;5.00;;;;;;;;;;5947824;29;1233934;-91
2023/12/20 04:24:32;;;;;;;4.72;4.57;;;;;;;;;;5990349;29;20046;-92
2023/12/20 04:27:33;;;;;;;4.70;4.50;;;;;;;;;;5991752;29;20046;-92
2023/12/20 04:30:35;;;;;;;5.03;4.82;;;;;;;;;;5999963;29;20046;-92
2023/12/20 04:33:37;;;;;;;4.65;4.45;;;;;;;;;;5998663;29;20093;-92
2023/12/20 04:36:39;;;;;;;6.25;5.95;;;;;;;;;;5998516;29;20038;-91
2023/12/20 04:39:41;;;;;;;5.82;5.50;;;;;;;;;;6010723;29;20138;-92
2023/12/20 04:42:43;;;;;;;4.45;4.30;;;;;;;;;;5998835;29;20046;-92
2023/12/20 04:45:45;;;;;;;5.32;5.03;;;;;;;;;;5990608;29;20042;-92
2023/12/20 04:48:46;;;;;;;4.40;4.30;;;;;;;;;;6011674;29;20517;-91
2023/12/20 04:51:49;;;;;;;4.93;4.82;;;;;;;;;;5994946;29;20493;-93
2023/12/20 04:54:51;;;;;;;4.53;4.43;;;;;;;;;;5993324;29;20409;-92
2023/12/20 04:57:52;;;;;;;5.20;5.03;;;;;;;;;;6016579;29;20210;-91
2023/12/20 05:00:54;;;;;;;6.05;5.65;;;;;;;;;;5995549;29;20493;-92
2023/12/20 05:03:56;;;;;;;5.00;4.88;;;;;;;;;;5997613;29;20444;-93
2023/12/20 05:06:58;;;;;;;4.78;4.63;;;;;;;;;;5994568;29;20135;-94
2023/12/20 05:10:00;;;;;;;6.45;6.18;;;;;;;;;;6001586;29;20053;-93
2023/12/20 05:13:01;;;;;;;5.63;5.43;;;;;;;;;;5986952;29;20054;-92
2023/12/20 05:16:03;;;;;;;5.18;4.78;;;;;;;;;;5998122;29;20418;-93
2023/12/20 05:19:06;;;;;;;5.03;4.72;;;;;;;;;;6009987;29;20054;-94
2023/12/20 05:22:09;;;;;;;5.40;5.20;;;;;;;;;;5985377;29;20076;-93
2023/12/20 05:25:11;;;;;;;6.90;6.53;;;;;;;;;;5991135;29;20053;-93
2023/12/20 05:28:12;;;;;;;5.03;4.90;;;;;;;;;;6007880;29;20337;-92
2023/12/20 05:31:14;;;;;;;5.28;5.07;;;;;;;;;;5988862;29;20039;-91
2023/12/20 05:34:16;;;;;;;5.22;5.03;;;;;;;;;;5996684;29;20493;-93
2023/12/20 05:37:17;;;;;;;4.75;4.55;;;;;;;;;;6006053;29;20054;-91
2023/12/20 05:40:19;;;;;;;5.13;4.82;;;;;;;;;;5996249;29;20626;-91
2023/12/20 05:43:21;;;;;;;7.05;4.25;;;;;;;;;;5993322;29;20049;-92
2023/12/20 05:46:22;;;;;;;12.65;6.20;;;;;;;;;;5990162;29;20140;-93
2023/12/20 05:49:24;;;;;;;6.13;5.78;;;;;;;;;;5996197;29;20054;-93
2023/12/20 05:52:26;;;;;;;6.40;6.10;;;;;;;;;;5986526;29;20489;-94
2023/12/20 05:55:28;;;;;;;9.07;5.05;;;;;;;;;;5994838;29;20075;-93
2023/12/20 05:58:30;;;;;;;5.25;5.05;;;;;;;;;;5987818;29;20046;-92
2023/12/20 06:01:31;;;;;;;5.55;5.35;;;;;;;;;;5998351;29;20042;-92
2023/12/20 06:04:33;;;;;;;4.60;4.50;;;;;;;;;;6001622;29;20053;-94
2023/12/20 06:07:35;;;;;;;4.82;4.63;;;;;;;;;;5991818;29;20042;-93
2023/12/20 06:10:37;;;;;;;10.05;5.72;;;;;;;;;;5987589;29;20084;-95
2023/12/20 06:13:39;;;;;;;5.43;5.22;;;;;;;;;;5992976;29;20146;-94
2023/12/20 06:16:41;;;;;;;4.80;4.65;;;;;;;;;;5992227;29;20405;-92
2023/12/20 06:19:44;;;;;;;5.05;4.85;;;;;;;;;;5998117;29;20572;-91
2023/12/20 06:22:47;;;;;;;5.35;5.15;;;;;;;;;;6000529;29;20042;-92
2023/12/20 06:25:49;;;;;;;5.45;5.25;;;;;;;;;;6001329;29;20038;-91
2023/12/20 06:28:50;;;;;;;4.97;4.80;;;;;;;;;;5996402;29;20082;-94
2023/12/20 06:31:52;;;;;;;5.55;5.35;;;;;;;;;;6000586;29;20038;-92
2023/12/20 06:34:54;;;;;;;6.78;6.20;;;;;;;;;;5999905;29;20053;-91
2023/12/20 06:37:56;;;;;;;5.25;5.05;;;;;;;;;;5993208;29;20070;-94
2023/12/20 06:40:58;;;;;;;4.35;4.25;;;;;;;;;;5990116;29;20051;-91
2023/12/20 06:44:00;;;;;;;4.53;4.40;;;;;;;;;;5996702;29;20552;-92
2023/12/20 06:47:02;;;;;;;9.18;5.80;;;;;;;;;;5990325;29;20172;-93
2023/12/20 06:50:04;;;;;;;7.53;5.72;;;;;;;;;;6010834;29;20172;-94
2023/12/20 06:53:09;;;;;;;5.57;5.38;;;;;;;;;;5990845;29;20118;-92
2023/12/20 06:56:16;;;;;;;6.43;5.90;;;;;;;;;;6005894;29;20049;-93
2023/12/20 06:59:20;;;;;;;6.75;6.13;;;;;;;;;;6001662;29;20163;-93
2023/12/20 07:02:22;;;;;;;5.97;5.57;;;;;;;;;;6011948;29;20178;-95
2023/12/20 07:05:24;;;;;;;5.63;5.43;;;;;;;;;;6013325;29;20512;-96
2023/12/20 07:08:26;;;;;;;5.43;5.22;;;;;;;;;;5992327;29;20042;-94
2023/12/20 07:11:27;;;;;;;5.43;4.47;;;;;;;;;;5991375;29;20077;-93
2023/12/20 07:14:29;;;;;;;6.78;5.05;;;;;;;;;;6002914;29;20095;-91
2023/12/20 07:17:30;;;;;;;5.18;4.97;;;;;;;;;;6002389;29;20053;-92
2023/12/20 07:20:32;;;;;;;4.72;4.53;;;;;;;;;;5995769;29;20123;-95
2023/12/20 07:23:34;;;;;;;5.90;5.50;;;;;;;;;;5997807;29;20054;-93
2023/12/20 07:26:37;;;;;;;5.47;5.28;;;;;;;;;;6007753;29;20045;-93
2023/12/20 07:29:39;;;;;;;5.13;4.93;;;;;;;;;;6004003;29;20058;-92
2023/12/20 07:32:40;;;;;;;13.07;5.72;;;;;;;;;;5995005;29;20113;-94
2023/12/20 07:35:45;;;;;;;11.73;5.28;;;;;;;;;;6003219;29;20540;-93
2023/12/20 07:38:47;;;;;;;5.22;5.03;;;;;;;;;;6012493;29;20042;-92
2023/12/20 07:41:48;;;;;;;7.10;6.47;;;;;;;;;;5999797;29;20096;-88
2023/12/20 07:44:53;;;;;;;5.65;5.45;;;;;;;;;;5998265;29;20171;-90
2023/12/20 07:47:54;;;;;;;5.43;5.13;;;;;;;;;;6019466;29;20527;-87
2023/12/20 07:50:56;;;;;;;5.50;5.30;;;;;;;;;;6002366;29;20050;-87
2023/12/20 07:53:58;;;;;;;6.82;6.43;;;;;;;;;;6001716;29;20061;-89
2023/12/20 07:56:59;;;;;;;5.32;5.13;;;;;;;;;;5993562;29;20472;-86
2023/12/20 08:00:03;;;;;;;6.63;6.03;;;;;;;;;;5988995;29;20997;-87
2023/12/20 08:03:05;;;;;;;5.93;5.63;;;;;;;;;;6000669;29;20053;-87
2023/12/20 08:06:07;;;;;;;6.20;6.00;;;;;;;;;;5993801;29;20433;-89
2023/12/20 08:09:09;;;;;;;14.52;5.43;;;;;;;;;;6014422;29;20053;-87
2023/12/20 08:12:11;;;;;;;8.38;7.53;;;;;;;;;;6004477;29;20118;-88
2023/12/20 08:15:14;;;;;;;5.45;5.25;;;;;;;;;;5999777;29;20493;-88
2023/12/20 08:18:16;;;;;;;6.05;5.85;;;;;;;;;;6001466;29;20061;-88
2023/12/20 08:21:20;;;;;;;15.25;6.10;;;;;;;;;;6000139;29;20050;-89
2023/12/20 08:24:22;;;;;;;5.50;5.30;;;;;;;;;;5995454;29;21001;-88
2023/12/20 08:27:23;;;;;;;5.95;5.65;;;;;;;;;;5999336;29;20118;-89
2023/12/20 08:30:25;;;;;;;5.95;5.63;;;;;;;;;;6007686;29;20130;-87
2023/12/20 08:33:27;;;;;;;9.57;7.20;;;;;;;;;;5991056;29;20056;-88
2023/12/20 08:36:28;;;;;;;5.35;5.15;;;;;;;;;;5997956;29;20061;-87
2023/12/20 08:39:30;;;;;;;4.85;4.75;;;;;;;;;;5991594;29;20371;-88
2023/12/20 08:42:34;;;;;;;5.50;5.15;;;;;;;;;;5991209;29;20404;-87
2023/12/20 08:45:36;;;;;;;4.85;4.75;;;;;;;;;;5998398;29;20050;-87
2023/12/20 08:48:38;;;;;;;5.07;4.88;;;;;;;;;;5996710;29;20493;-88
2023/12/20 08:51:40;;;;;;;5.78;5.47;;;;;;;;;;5987027;29;20042;-87
2023/12/20 08:54:43;;;;;;;7.38;6.75;;;;;;;;;;5996569;29;20042;-87
2023/12/20 08:57:46;;;;;;;6.38;5.55;;;;;;;;;;5992161;29;20046;-88
2023/12/20 09:00:48;;;;;;;6.10;5.80;;;;;;;;;;5994093;29;20042;-88
2023/12/20 09:03:50;;;;;;;5.82;5.53;;;;;;;;;;6002293;29;20470;-88
2023/12/20 09:06:51;;;;;;;4.80;4.70;;;;;;;;;;5995772;29;20054;-88
2023/12/20 09:09:53;;;;;;;5.32;5.05;;;;;;;;;;6000727;29;20515;-88
2023/12/20 09:12:56;;;;;;;5.03;4.82;;;;;;;;;;5983399;29;20421;-88
2023/12/20 09:15:58;;;;;;;6.10;5.88;;;;;;;;;;6012988;29;20556;-89
2023/12/20 09:19:00;;;;;;;7.18;6.88;;;;;;;;;;5994630;29;20485;-88
2023/12/20 09:22:02;;;;;;;5.82;5.63;;;;;;;;;;5991089;29;20293;-89
2023/12/20 09:25:05;;;;;;;5.90;5.70;;;;;;;;;;5995619;29;20068;-89
2023/12/20 09:28:06;;;;;;;6.47;6.18;;;;;;;;;;5996514;29;20520;-88
2023/12/20 09:31:08;;;;;;;5.85;5.65;;;;;;;;;;5988824;29;20053;-89
2023/12/20 09:34:10;;;;;;;6.20;5.85;;;;;;;;;;5994447;29;20053;-88
2023/12/20 09:37:12;;;;;;;5.45;5.25;;;;;;;;;;5995225;29;20057;-89
2023/12/20 09:40:15;;;;;;;5.50;5.30;;;;;;;;;;5994447;29;20126;-89
2023/12/20 09:43:22;;;;;;;5.78;5.57;;;;;;;;;;5999015;29;20042;-91
2023/12/20 09:46:26;;;;;;;6.07;5.78;;;;;;;;;;6006867;29;20057;-88
2023/12/20 09:49:29;;;;;;;5.53;5.20;;;;;;;;;;6012453;29;20073;-88
2023/12/20 09:52:31;;;;;;;6.00;5.80;;;;;;;;;;6002784;29;20133;-89
2023/12/20 09:55:36;;;;;;;11.82;5.85;;;;;;;;;;6011222;29;20050;-89
2023/12/20 09:58:39;;;;;;;6.00;5.80;;;;;;;;;;5995229;29;20049;-88
2023/12/20 10:01:41;;;;;;;13.23;6.32;;;;;;;;;;6000404;29;20135;-91
2023/12/20 10:04:47;;;;;;;6.88;6.35;;;;;;;;;;6022044;29;20042;-89
2023/12/20 10:07:49;;;;;;;5.35;5.15;;;;;;;;;;6003665;29;20401;-89
2023/12/20 10:10:51;;;;;;;10.27;6.63;;;;;;;;;;5989763;29;20406;-91
2023/12/20 10:13:58;;;;;;;5.97;5.68;;;;;;;;;;5987852;29;20041;-88
2023/12/20 10:17:03;;;;;;;5.50;5.30;;;;;;;;;;6001052;29;20117;-89
2023/12/20 10:20:09;;;;;;;4.97;4.78;;;;;;;;;;5998639;29;20046;-88
2023/12/20 10:23:13;;;;;;;7.28;6.72;;;;;;;;;;6008953;29;20630;-87
2023/12/20 10:26:25;;;;;;;5.82;5.53;;;;;;;;;;6013892;29;20069;-88
2023/12/20 10:29:27;;;;;;;6.15;5.85;;;;;;;;;;5995627;29;20428;-87
2023/12/20 10:32:29;;;;;;;6.45;5.93;;;;;;;;;;6004832;29;20046;-88
2023/12/20 10:35:31;;;;;;;6.22;5.65;;;;;;;;;;6004746;29;20046;-89
2023/12/20 10:38:34;;;;;;;6.68;6.38;;;;;;;;;;5994807;29;20094;-90
2023/12/20 10:41:41;;;;;;;6.80;6.50;;;;;;;;;;5998116;29;20054;-90
2023/12/20 10:44:43;;;;;;;5.55;5.30;;;;;;;;;;5995308;29;20090;-90
2023/12/20 10:47:46;;;;;;;5.32;5.13;;;;;;;;;;6002173;29;20504;-90
2023/12/20 10:50:49;;;;;;;6.15;5.63;;;;;;;;;;6007140;29;20082;-89
2023/12/20 10:53:52;;;;;;;23.98;6.07;;;;;;;;;;5995915;29;20050;-89
2023/12/20 10:56:57;;;;;;;6.60;6.30;;;;;;;;;;6001361;29;20481;-89
2023/12/20 11:00:03;;;;;;;5.30;5.10;;;;;;;;;;5998477;29;20085;-89
2023/12/20 11:03:05;;;;;;;5.72;5.53;;;;;;;;;;6013919;29;20409;-89
2023/12/20 11:06:10;;;;;;;5.10;4.90;;;;;;;;;;6006215;29;20133;-88
2023/12/20 11:09:12;;;;;;;6.70;6.32;;;;;;;;;;6003135;29;20128;-88
2023/12/20 11:12:25;;;;;;;5.72;5.53;;;;;;;;;;5997427;29;20121;-87
2023/12/20 11:15:28;;;;;;;6.70;6.40;;;;;;;;;;6000757;29;20045;-89
2023/12/20 11:18:33;;;;;;;6.07;5.68;;;;;;;;;;6003469;29;20046;-87
2023/12/20 11:21:35;;;;;;;6.10;5.88;;;;;;;;;;6002185;29;20045;-87
2023/12/20 11:24:44;;;;;;;5.78;5.43;;;;;;;;;;5993314;29;20863;-88
2023/12/20 11:28:05;;;;;;;5.70;5.28;;;;;;;;;;5997064;29;20125;-88
2023/12/20 11:31:10;;;;;;;7.10;6.03;;;;;;;;;;6010430;29;20054;-88
2023/12/20 11:34:13;;;;;;;5.95;5.65;;;;;;;;;;6000480;29;20512;-86
2023/12/20 11:37:14;;;;;;;5.60;5.30;;;;;;;;;;6014804;29;20520;-87
2023/12/20 11:40:18;;;;;;;4.80;4.70;;;;;;;;;;5994638;29;20081;-86
2023/12/20 11:43:34;;;;;;;6.80;6.50;;;;;;;;;;5994646;29;20502;-90
2023/12/20 11:46:36;;;;;;;15.50;6.65;;;;;;;;;;5994711;29;20042;-88
2023/12/20 11:49:38;;;;;;;8.35;8.07;;;;;;;;;;5990669;29;20468;-90
2023/12/20 11:52:46;;;;;;;7.90;7.50;;;;;;;;;;6001758;29;20062;-91
2023/12/20 11:55:49;;;;;;;5.40;5.20;;;;;;;;;;6005532;29;20068;-91
2023/12/20 11:58:50;;;;;;;7.15;6.25;;;;;;;;;;5994453;29;20509;-93
2023/12/20 12:01:52;;;;;;;5.35;5.15;;;;;;;;;;6012658;29;20046;-90
2023/12/20 12:04:56;;;;;;;7.80;7.53;;;;;;;;;;5999733;29;20042;-89
2023/12/20 12:07:58;;;;;;;5.85;5.65;;;;;;;;;;5990063;29;20050;-91
2023/12/20 12:11:01;;;;;;;5.00;4.80;;;;;;;;;;6003754;29;20065;-92
2023/12/20 12:14:03;;;;;;;10.25;9.95;;;;;;;;;;5997433;29;20056;-92
2023/12/20 12:17:04;;;;;;;5.00;4.90;;;;;;;;;;5991708;29;20078;-92
2023/12/20 12:20:07;;;;;;;9.95;5.25;;;;;;;;;;5998843;29;20122;-90
2023/12/20 12:23:09;;;;;;;5.57;5.38;;;;;;;;;;5990877;29;20038;-91
2023/12/20 12:26:11;;;;;;;4.88;4.78;;;;;;;;;;6000882;29;20060;-93
2023/12/20 12:29:13;;;;;;;5.57;5.18;;;;;;;;;;5993910;29;20046;-90
2023/12/20 12:32:15;;;;;;;4.95;4.85;;;;;;;;;;5995619;29;20137;-89
2023/12/20 12:35:17;;;;;;;7.72;5.50;;;;;;;;;;6015277;29;20038;-87
2023/12/20 12:38:22;;;;;;;6.97;6.78;;;;;;;;;;5986313;29;20050;-87
2023/12/20 12:41:23;;;;;;;4.82;4.72;;;;;;;;;;5989529;29;20046;-86
2023/12/20 12:44:25;;;;;;;5.22;5.03;;;;;;;;;;5996958;29;20046;-87
2023/12/20 12:47:27;;;;;;;4.80;4.70;;;;;;;;;;6006092;29;20066;-87
2023/12/20 12:50:29;;;;;;;4.85;4.65;;;;;;;;;;5990779;29;20507;-87
2023/12/20 12:53:32;;;;;;;8.38;5.22;;;;;;;;;;5988649;29;20192;-87
2023/12/20 12:56:34;;;;;;;8.07;7.57;;;;;;;;;;5999026;29;20090;-88
2023/12/20 12:59:36;;;;;;;5.60;5.30;;;;;;;;;;5987737;29;20046;-89
2023/12/20 13:02:41;;;;;;;4.75;4.65;;;;;;;;;;6002864;29;20046;-88
2023/12/20 13:05:44;;;;;;;5.60;5.40;;;;;;;;;;5990105;29;20052;-88
2023/12/20 13:08:47;;;;;;;5.32;5.13;;;;;;;;;;5985543;29;20520;-89
2023/12/20 13:11:49;;;;;;;5.00;4.85;;;;;;;;;;5999068;29;20164;-88
2023/12/20 13:14:57;;;;;;;4.80;4.70;;;;;;;;;;5992992;29;20042;-88
2023/12/20 13:18:00;;;;;;;5.03;4.93;;;;;;;;;;5989463;29;20038;-88
2023/12/20 13:21:02;;;;;;;5.40;5.20;;;;;;;;;;5993189;29;20034;-88
2023/12/20 13:24:04;;;;;;;5.38;5.18;;;;;;;;;;5992562;29;20054;-88
2023/12/20 13:27:05;;;;;;;5.95;5.75;;;;;;;;;;5993295;29;20057;-89
2023/12/20 13:30:07;;;;;;;5.53;5.32;;;;;;;;;;5990788;29;20905;-85
2023/12/20 13:33:09;;;;;;;5.07;4.93;;;;;;;;;;6003250;29;20641;-88
2023/12/20 13:36:12;;;;;;;5.40;5.22;;;;;;;;;;5994816;29;20064;-89
2023/12/20 13:39:13;;;;;;;5.03;4.93;;;;;;;;;;5992605;29;20430;-88
2023/12/20 13:42:15;;;;;;;4.40;4.30;;;;;;;;;;5998858;29;20133;-88
2023/12/20 13:45:17;;;;;;;4.82;4.72;;;;;;;;;;5992569;29;20053;-89
2023/12/20 13:48:19;;;;;;;4.45;4.35;;;;;;;;;;5992020;29;20556;-90
2023/12/20 13:51:21;;;;;;;4.78;4.68;;;;;;;;;;6006034;29;20054;-92
2023/12/20 13:54:23;;;;;;;5.10;4.90;;;;;;;;;;5991161;29;20046;-90
2023/12/20 13:57:25;;;;;;;5.13;4.93;;;;;;;;;;5993182;29;20137;-88
2023/12/20 14:00:48;;;;;;;4.80;4.70;;;;;;;;;;5997362;29;20061;-90
2023/12/20 14:03:50;;;;;;;4.30;4.20;;;;;;;;;;6014931;29;20114;-90
2023/12/20 14:06:52;;;;;;;5.15;5.05;;;;;;;;;;5996728;29;20042;-93
2023/12/20 14:09:55;;;;;;;4.90;4.72;;;;;;;;;;5996745;29;20129;-91
2023/12/20 14:12:56;;;;;;;5.57;5.38;;;;;;;;;;5998852;29;20057;-90
2023/12/20 14:16:00;;;;;;;4.50;4.40;;;;;;;;;;6019114;29;20062;-91
2023/12/20 14:19:03;;;;;;;4.95;4.85;;;;;;;;;;5996068;29;20174;-91
2023/12/20 14:22:05;;;;;;;4.72;4.60;;;;;;;;;;5992837;29;20082;-90
2023/12/20 14:25:07;;;;;;;5.10;4.90;;;;;;;;;;5994510;29;20058;-89
2023/12/20 14:28:10;;;;;;;4.38;4.28;;;;;;;;;;5997653;29;20128;-91
2023/12/20 14:31:11;;;;;;;5.78;5.35;;;;;;;;;;5997603;29;20502;-91
2023/12/20 14:34:14;;;;;;;4.90;4.75;;;;;;;;;;5999315;29;20044;-92
2023/12/20 14:37:17;;;;;;;5.70;5.50;;;;;;;;;;5999264;29;20058;-90
2023/12/20 14:40:19;;;;;;;5.05;4.88;;;;;;;;;;5996842;29;20052;-93
2023/12/20 14:43:22;;;;;;;4.90;4.70;;;;;;;;;;5998900;29;20118;-90
2023/12/20 14:46:23;;;;;;;11.13;5.82;;;;;;;;;;6001128;29;20135;-91
2023/12/20 14:49:26;;;;;;;5.45;5.22;;;;;;;;;;6004377;29;20602;-90
2023/12/20 14:52:28;;;;;;;5.95;5.65;;;;;;;;;;5999895;29;20147;-92
2023/12/20 14:55:30;;;;;;;4.50;4.40;;;;;;;;;;6002121;29;20230;-91
2023/12/20 14:58:33;;;;;;;4.90;4.80;;;;;;;;;;6000446;29;20124;-90
2023/12/20 15:01:36;;;;;;;5.68;5.38;;;;;;;;;;5992843;29;20585;-90
2023/12/20 15:04:38;;;;;;;5.40;5.20;;;;;;;;;;6007175;29;20416;-94
2023/12/20 15:07:40;;;;;;;5.07;4.88;;;;;;;;;;6001200;29;20050;-90
2023/12/20 15:10:41;;;;;;;4.97;4.57;;;;;;;;;;5993267;29;20265;-92
2023/12/20 15:13:43;;;;;;;10.20;5.10;;;;;;;;;;6003023;29;20473;-90
2023/12/20 15:16:48;;;;;;;5.60;5.13;;;;;;;;;;5993105;29;20050;-90
2023/12/20 15:19:50;;;;;;;4.15;4.05;;;;;;;;;;6008348;29;20046;-93
2023/12/20 15:22:53;;;;;;;5.18;4.97;;;;;;;;;;6002881;29;20050;-92
2023/12/20 15:25:55;;;;;;;6.00;5.57;;;;;;;;;;5994911;29;20383;-90
2023/12/20 15:28:56;;;;;;;5.13;4.95;;;;;;;;;;5996363;29;20057;-90
2023/12/20 15:31:58;;;;;;;4.40;4.30;;;;;;;;;;5999036;29;20042;-92
2023/12/20 15:35:00;;;;;;;5.30;5.10;;;;;;;;;;5995143;29;20058;-91
2023/12/20 15:38:04;;;;;;;5.30;5.00;;;;;;;;;;5999726;29;20042;-91
2023/12/20 15:41:06;;;;;;;5.35;5.15;;;;;;;;;;5998936;29;20046;-91
2023/12/20 15:44:08;;;;;;;4.68;4.55;;;;;;;;;;6003554;29;20124;-91
2023/12/20 15:47:10;;;;;;;5.20;5.00;;;;;;;;;;5988220;29;20046;-90
2023/12/20 15:50:12;;;;;;;4.40;4.30;;;;;;;;;;5990739;29;20713;-91
2023/12/20 15:53:14;;;;;;;5.05;4.95;;;;;;;;;;6000752;29;20041;-91
2023/12/20 15:56:17;;;;;;;4.93;4.75;;;;;;;;;;6004824;29;20054;-90
2023/12/20 15:59:19;;;;;;;5.28;5.07;;;;;;;;;;6004372;29;20050;-89
2023/12/20 16:02:22;;;;;;;4.85;4.75;;;;;;;;;;5990984;29;20106;-88
2023/12/20 16:05:24;;;;;;;6.13;5.65;;;;;;;;;;6003785;29;20042;-92
2023/12/20 16:08:27;;;;;;;9.60;5.63;;;;;;;;;;5997826;29;20114;-91
2023/12/20 16:11:29;;;;;;;5.40;5.10;;;;;;;;;;5989870;29;20050;-91
2023/12/20 16:14:31;;;;;;;4.95;4.85;;;;;;;;;;5998667;29;20363;-92
2023/12/20 16:17:33;;;;;;;5.40;5.20;;;;;;;;;;6000004;29;20080;-92
2023/12/20 16:20:35;;;;;;;5.22;5.03;;;;;;;;;;6008454;29;20049;-92
2023/12/20 16:23:37;;;;;;;5.40;5.20;;;;;;;;;;5995854;29;20158;-91
2023/12/20 16:26:38;;;;;;;5.82;5.63;;;;;;;;;;5992034;29;20117;-92
2023/12/20 16:29:40;;;;;;;4.65;4.55;;;;;;;;;;6004352;29;20048;-91
2023/12/20 16:32:41;;;;;;;5.47;5.28;;;;;;;;;;5999465;29;20505;-91
2023/12/20 16:35:43;;;;;;;6.07;5.88;;;;;;;;;;5994603;29;20069;-90
2023/12/20 16:38:45;;;;;;;5.32;5.13;;;;;;;;;;5989720;29;20219;-91
2023/12/20 16:41:46;;;;;;;5.15;4.95;;;;;;;;;;5989601;29;20221;-91
2023/12/20 16:44:48;;;;;;;5.70;5.50;;;;;;;;;;5998981;29;20543;-90
2023/12/20 16:47:50;;;;;;;4.95;4.82;;;;;;;;;;6009634;29;20504;-90
2023/12/20 16:50:52;;;;;;;5.95;5.65;;;;;;;;;;5998438;29;20218;-89
2023/12/20 16:53:53;;;;;;;4.07;3.97;;;;;;;;;;5996502;29;20400;-88
2023/12/20 16:56:55;;;;;;;5.22;5.03;;;;;;;;;;5993794;29;20580;-87
2023/12/20 16:59:57;;;;;;;5.07;4.95;;;;;;;;;;5999066;29;20497;-88
2023/12/20 17:02:59;;;;;;;5.72;5.50;;;;;;;;;;5985388;29;20293;-88
2023/12/20 17:06:00;;;;;;;6.05;5.70;;;;;;;;;;5998957;29;20133;-89
2023/12/20 17:09:02;;;;;;;5.32;5.13;;;;;;;;;;5995492;29;20054;-89
2023/12/20 17:12:04;;;;;;;5.32;5.13;;;;;;;;;;5993592;29;20050;-90
2023/12/20 17:15:07;;;;;;;5.63;5.43;;;;;;;;;;5997355;29;20069;-90
2023/12/20 17:18:08;;;;;;;5.82;5.63;;;;;;;;;;5997272;29;20049;-91
2023/12/20 17:21:11;;;;;;;4.80;4.70;;;;;;;;;;6007467;29;20053;-90
2023/12/20 17:24:13;;;;;;;6.75;6.28;;;;;;;;;;6006839;29;20175;-91
2023/12/20 17:27:15;;;;;;;5.95;5.75;;;;;;;;;;6111581;23;20543;-96
2023/12/20 17:30:29;;;;;;;4.68;4.57;;;;;;;;;;6057268;29;20045;-96
2023/12/20 17:33:41;;;;;;;5.93;5.72;;;;;;;;;;6051220;29;20045;-96
2023/12/20 17:36:46;;;;;;;5.53;5.32;;;;;;;;;;6051801;29;20044;-95
2023/12/20 17:39:52;;;;;;;5.68;5.47;;;;;;;;;;6040057;29;20444;-92
2023/12/20 17:42:55;;;;;;;11.52;5.38;;;;;;;;;;6040445;29;20077;-93
2023/12/20 17:46:00;;;;;;;5.15;4.97;;;;;;;;;;6043521;29;20546;-93
2023/12/20 17:49:03;;;;;;;5.35;5.15;;;;;;;;;;6041549;29;20044;-93
2023/12/20 17:52:06;;;;;;;5.78;5.57;;;;;;;;;;6041683;29;20139;-92
2023/12/20 17:55:08;;;;;;;5.57;5.38;;;;;;;;;;6027370;29;20136;-92
2023/12/20 17:58:10;;;;;;;4.80;4.70;;;;;;;;;;6043354;29;20040;-91
2023/12/20 18:01:14;;;;;;;5.70;5.50;;;;;;;;;;6044065;29;20178;-92
2023/12/20 18:04:20;;;;;;;5.15;5.03;;;;;;;;;;6053562;29;20091;-93
2023/12/20 18:07:23;;;;;;;5.50;5.30;;;;;;;;;;6038073;29;20060;-95
2023/12/20 18:10:26;;;;;;;5.45;5.25;;;;;;;;;;6025204;29;20053;-95
2023/12/20 18:13:29;;;;;;;6.20;5.68;;;;;;;;;;6048283;29;20049;-96